Hauptseite
METAR-TAF:

METAR-TAF

Flughäfen :

Kuwait-Stadt, Kuwait

Flughafen Kuwait

Breite: 29-13N, Länge: 047-59E, Höhe: 55 m

Beobachtung

Neuester Wetterbericht von vor 32 Minuten, um 16:00 UTC
Wind 5 kt aus Nord/Nordwest
Temperatur 17°C
Luftfeuchtigkeit 36%
Luftdruck 1025 hPa
Sichtweite: 8000 m
Himmel klar

METAR: OKBK 181600Z 33005KT 8000 SKC 17/02 Q1025 NOSIG

Zeit: 19:32 (16:32 UTC)

Prognose

Neuester Wetterbericht von vor 35 Stunden und 47 Minuten, um 04:45 UTC
Gültige Prognose vom 17 um 06 UTC bis 18 um 12 UTC
Wind 8 kt aus Nord, Böen bis zu 18 kt
Sichtweite: 7000 m
Himmel klar

TAF: OKBK 170445Z 1706/1812 35008G18KT 7000 SKC

Wetterbeobachtungen und Prognosen von mehr als 4000 Flughäfen (METAR und TAF Bericht).

Die verfügbaren Stationen werden durch gelbe und rote Markierungen auf der Karte dargestellt.

Führen Sie die Maus auf sie, um den Namen der Station zu sehen.

Darauf klicken, um die Beobachtung von Wetterbeobachtungen und Prognosen zu sehen.

Um die Karte zu ändern : klicken Sie auf den grünen Tasten mit einem schwarzen Kreuz Zum Vergrößern, auf den grünen Button mit einem Gedankenstrich zu verkleinern, oder auf die grünen Pfeile für benachbarte Karten.


METAR-TAF: